createdAt,value
2018-06-29T00:00:41.766Z,991.29
2018-06-29T00:01:41.766Z,991.29
2018-06-29T00:02:41.768Z,991.36
2018-06-29T00:03:41.768Z,991.36
2018-06-29T00:04:41.772Z,991.41
2018-06-29T00:05:41.770Z,991.38
2018-06-29T00:06:41.769Z,991.4
2018-06-29T00:07:41.770Z,991.41
2018-06-29T00:08:41.773Z,991.44
2018-06-29T00:09:41.781Z,991.42
2018-06-29T00:10:41.777Z,991.44
2018-06-29T00:11:41.779Z,991.46
2018-06-29T00:12:41.778Z,991.43
2018-06-29T00:13:41.779Z,991.42
2018-06-29T00:14:41.781Z,991.44
2018-06-29T00:15:41.780Z,991.45
2018-06-29T00:16:41.800Z,991.45
2018-06-29T00:17:41.781Z,991.44
2018-06-29T00:18:41.861Z,991.46
2018-06-29T00:19:41.787Z,991.48
2018-06-29T00:20:41.784Z,991.47
2018-06-29T00:21:41.783Z,991.45
2018-06-29T00:22:41.786Z,991.46
2018-06-29T00:23:41.792Z,991.47
2018-06-29T00:24:41.786Z,991.48
2018-06-29T00:25:41.789Z,991.47
2018-06-29T00:26:41.789Z,991.48
2018-06-29T00:27:41.790Z,991.49
2018-06-29T00:28:41.793Z,991.49
2018-06-29T00:29:41.793Z,991.5
2018-06-29T00:30:41.796Z,991.49
2018-06-29T00:31:41.793Z,991.5
2018-06-29T00:32:41.802Z,991.5
2018-06-29T00:33:41.803Z,991.47
2018-06-29T00:34:41.798Z,991.47
2018-06-29T00:35:41.796Z,991.47
2018-06-29T00:36:41.816Z,991.45
2018-06-29T00:37:41.806Z,991.46
2018-06-29T00:38:41.802Z,991.49
2018-06-29T00:39:41.801Z,991.51
2018-06-29T00:40:41.803Z,991.52
2018-06-29T00:41:41.824Z,991.53
2018-06-29T00:42:41.896Z,991.54
2018-06-29T00:43:41.806Z,991.5
2018-06-29T00:44:41.806Z,991.5
2018-06-29T00:45:41.808Z,991.5
2018-06-29T00:46:41.812Z,991.45
2018-06-29T00:47:41.820Z,991.45
2018-06-29T00:48:41.815Z,991.43
2018-06-29T00:49:41.812Z,991.49
2018-06-29T00:50:41.814Z,991.47
2018-06-29T00:51:41.814Z,991.46
2018-06-29T00:52:41.815Z,991.53
2018-06-29T00:53:41.816Z,991.55
2018-06-29T00:54:41.852Z,991.49
2018-06-29T00:55:41.820Z,991.55
2018-06-29T00:56:41.819Z,991.53
2018-06-29T00:57:41.820Z,991.47
2018-06-29T00:58:41.828Z,991.47
2018-06-29T00:59:41.822Z,991.45
2018-06-29T01:00:41.827Z,991.41
2018-06-29T01:01:41.823Z,991.37
2018-06-29T01:02:41.825Z,991.39
2018-06-29T01:03:41.826Z,991.39
2018-06-29T01:04:41.832Z,991.44
2018-06-29T01:05:41.836Z,991.48
2018-06-29T01:06:41.832Z,991.5
2018-06-29T01:07:41.828Z,991.5
2018-06-29T01:08:41.834Z,991.46
2018-06-29T01:09:41.833Z,991.46
2018-06-29T01:10:41.833Z,991.43
2018-06-29T01:11:41.834Z,991.44
2018-06-29T01:12:41.836Z,991.43
2018-06-29T01:13:41.835Z,991.47
2018-06-29T01:14:41.839Z,991.41
2018-06-29T01:15:41.839Z,991.42
2018-06-29T01:16:41.845Z,991.49
2018-06-29T01:17:41.844Z,991.52
2018-06-29T01:18:41.843Z,991.51
2018-06-29T01:19:41.848Z,991.52
2018-06-29T01:20:41.843Z,991.48
2018-06-29T01:21:41.847Z,991.44
2018-06-29T01:22:41.845Z,991.44
2018-06-29T01:23:41.846Z,991.42
2018-06-29T01:24:41.851Z,991.38
2018-06-29T01:25:41.850Z,991.4
2018-06-29T01:26:41.851Z,991.43
2018-06-29T01:27:41.850Z,991.43
2018-06-29T01:28:41.926Z,991.47
2018-06-29T01:29:41.852Z,991.46
2018-06-29T01:30:41.854Z,991.47
2018-06-29T01:31:41.860Z,991.49
2018-06-29T01:32:41.856Z,991.47
2018-06-29T01:33:41.859Z,991.46
2018-06-29T01:34:41.860Z,991.45
2018-06-29T01:35:41.860Z,991.45
2018-06-29T01:36:41.861Z,991.42
2018-06-29T01:37:41.865Z,991.37
2018-06-29T01:38:41.861Z,991.31
2018-06-29T01:39:41.896Z,991.35
2018-06-29T01:40:41.866Z,991.31
2018-06-29T01:41:41.863Z,991.27
2018-06-29T01:42:41.865Z,991.25
2018-06-29T01:43:41.875Z,991.25
2018-06-29T01:44:41.875Z,991.19
2018-06-29T01:45:41.868Z,991.19
2018-06-29T01:46:41.881Z,991.21
2018-06-29T01:47:41.881Z,991.17
2018-06-29T01:48:41.874Z,991.21
2018-06-29T01:49:41.871Z,991.2
2018-06-29T01:50:41.873Z,991.19
2018-06-29T01:51:41.873Z,991.22
2018-06-29T01:52:41.981Z,991.23
2018-06-29T01:53:41.883Z,991.23
2018-06-29T01:54:41.883Z,991.2
2018-06-29T01:55:41.880Z,991.2
2018-06-29T01:56:41.880Z,991.21
2018-06-29T01:57:41.879Z,991.19
2018-06-29T01:58:41.899Z,991.2
2018-06-29T01:59:41.881Z,991.11
2018-06-29T02:00:41.885Z,991.14
2018-06-29T02:01:41.884Z,991.15
2018-06-29T02:02:41.893Z,991.16
2018-06-29T02:03:41.888Z,991.11
2018-06-29T02:04:41.900Z,991.14
2018-06-29T02:05:41.888Z,991.18
2018-06-29T02:06:41.901Z,991.17
2018-06-29T02:07:41.899Z,991.19
2018-06-29T02:08:41.903Z,991.21
2018-06-29T02:09:41.898Z,991.23
2018-06-29T02:10:41.907Z,991.27
2018-06-29T02:11:41.901Z,991.28
2018-06-29T02:12:41.910Z,991.27
2018-06-29T02:13:41.907Z,991.26
2018-06-29T02:14:41.910Z,991.24
2018-06-29T02:15:41.899Z,991.23
2018-06-29T02:16:41.903Z,991.23
2018-06-29T02:17:41.941Z,991.22
2018-06-29T02:18:41.903Z,991.22
2018-06-29T02:19:41.905Z,991.22
2018-06-29T02:20:41.902Z,991.21
2018-06-29T02:21:41.911Z,991.2
2018-06-29T02:22:41.905Z,991.22
2018-06-29T02:23:41.915Z,991.19
2018-06-29T02:24:41.910Z,991.17
2018-06-29T02:25:41.907Z,991.19
2018-06-29T02:26:41.912Z,991.15
2018-06-29T02:27:41.944Z,991.15
2018-06-29T02:28:41.912Z,991.13
2018-06-29T02:29:41.913Z,991.13
2018-06-29T02:30:41.963Z,991.09
2018-06-29T02:31:41.913Z,991.11
2018-06-29T02:32:41.914Z,991.07
2018-06-29T02:33:41.915Z,991.06
2018-06-29T02:34:41.921Z,991.08
2018-06-29T02:35:41.918Z,991.06
2018-06-29T02:36:41.918Z,991.05
2018-06-29T02:37:41.928Z,991.1
2018-06-29T02:38:41.923Z,991.07
2018-06-29T02:39:41.929Z,991.09
2018-06-29T02:40:41.921Z,991.04
2018-06-29T02:41:41.925Z,991.09
2018-06-29T02:42:41.924Z,991.07
2018-06-29T02:43:41.926Z,991.06
2018-06-29T02:44:41.929Z,991.05
2018-06-29T02:45:41.930Z,991.1
2018-06-29T02:46:41.937Z,991.09
2018-06-29T02:47:41.931Z,991.06
2018-06-29T02:48:41.932Z,991.07
2018-06-29T02:49:41.933Z,991.09
2018-06-29T02:50:41.934Z,991.05
2018-06-29T02:51:41.936Z,991
2018-06-29T02:52:41.937Z,990.98
2018-06-29T02:53:41.939Z,990.95
2018-06-29T02:54:41.938Z,990.92
2018-06-29T02:55:41.941Z,990.94
2018-06-29T02:56:41.939Z,990.87
2018-06-29T02:57:41.942Z,990.9
2018-06-29T02:58:41.946Z,990.95
2018-06-29T02:59:41.944Z,990.91
2018-06-29T03:00:42.025Z,990.92
2018-06-29T03:01:41.953Z,990.89
2018-06-29T03:02:41.954Z,990.94
2018-06-29T03:03:41.947Z,990.9
2018-06-29T03:04:41.947Z,990.89
2018-06-29T03:05:42.066Z,990.88
2018-06-29T03:06:41.949Z,990.88
2018-06-29T03:07:41.954Z,990.86
2018-06-29T03:08:41.954Z,990.89
2018-06-29T03:09:41.961Z,990.9
2018-06-29T03:10:41.952Z,990.91
2018-06-29T03:11:41.961Z,990.92
2018-06-29T03:12:41.965Z,990.97
2018-06-29T03:13:41.961Z,990.93
2018-06-29T03:14:41.980Z,990.91
2018-06-29T03:15:41.960Z,990.87
2018-06-29T03:16:41.961Z,990.88
2018-06-29T03:17:41.962Z,990.88
2018-06-29T03:18:41.964Z,990.88
2018-06-29T03:19:41.978Z,990.88
2018-06-29T03:20:41.964Z,990.88
2018-06-29T03:21:42.765Z,990.87
2018-06-29T03:22:41.965Z,990.87
2018-06-29T03:23:41.966Z,990.86
2018-06-29T03:24:41.968Z,990.88
2018-06-29T03:25:41.968Z,990.91
2018-06-29T03:26:41.967Z,990.88
2018-06-29T03:27:41.987Z,990.92
2018-06-29T03:28:41.971Z,990.93
2018-06-29T03:29:41.991Z,990.9
2018-06-29T03:30:41.992Z,990.93
2018-06-29T03:31:41.999Z,990.9
2018-06-29T03:32:41.994Z,990.92
2018-06-29T03:33:41.992Z,990.95
2018-06-29T03:34:41.993Z,990.97
2018-06-29T03:35:42.099Z,990.99
2018-06-29T03:36:41.991Z,991
2018-06-29T03:37:41.990Z,990.97
2018-06-29T03:38:41.986Z,990.97
2018-06-29T03:39:41.993Z,990.99
2018-06-29T03:40:42.088Z,990.95
2018-06-29T03:41:41.998Z,990.93
2018-06-29T03:42:41.997Z,990.92
2018-06-29T03:43:41.995Z,990.92
2018-06-29T03:44:41.994Z,990.92
2018-06-29T03:45:42.033Z,990.91
2018-06-29T03:46:42.003Z,990.92
2018-06-29T03:47:41.997Z,990.87
2018-06-29T03:48:41.994Z,990.9
2018-06-29T03:49:42.010Z,990.88
2018-06-29T03:50:41.999Z,990.88
2018-06-29T03:51:42.001Z,990.85
2018-06-29T03:52:42.001Z,990.83
2018-06-29T03:53:42.004Z,990.83
2018-06-29T03:54:42.005Z,990.83
2018-06-29T03:55:42.003Z,990.85
2018-06-29T03:56:42.012Z,990.86
2018-06-29T03:57:42.013Z,990.83
2018-06-29T03:58:42.014Z,990.83
2018-06-29T03:59:42.007Z,990.74
2018-06-29T04:00:42.005Z,990.8
2018-06-29T04:01:42.009Z,990.77
2018-06-29T04:02:42.009Z,990.78
2018-06-29T04:03:42.007Z,990.78
2018-06-29T04:04:42.008Z,990.79
2018-06-29T04:05:42.008Z,990.79
2018-06-29T04:06:42.015Z,990.77
2018-06-29T04:07:42.008Z,990.79
2018-06-29T04:08:42.008Z,990.77
2018-06-29T04:09:42.028Z,990.77
2018-06-29T04:10:42.043Z,990.78
2018-06-29T04:11:42.051Z,990.79
2018-06-29T04:12:42.017Z,990.8
2018-06-29T04:13:42.030Z,990.78
2018-06-29T04:14:42.023Z,990.8
2018-06-29T04:15:42.024Z,990.8
2018-06-29T04:16:42.031Z,990.75
2018-06-29T04:17:42.024Z,990.79
2018-06-29T04:18:42.027Z,990.82
2018-06-29T04:19:42.023Z,990.79
2018-06-29T04:20:42.030Z,990.86
2018-06-29T04:21:42.030Z,990.87
2018-06-29T04:22:42.026Z,990.87
2018-06-29T04:23:42.027Z,990.86
2018-06-29T04:24:42.032Z,990.8
2018-06-29T04:25:42.029Z,990.84
2018-06-29T04:26:42.035Z,990.81
2018-06-29T04:27:42.052Z,990.84
2018-06-29T04:28:42.033Z,990.88
2018-06-29T04:29:42.034Z,990.94
2018-06-29T04:30:42.033Z,990.92
2018-06-29T04:31:42.036Z,990.92
2018-06-29T04:32:42.048Z,990.93
2018-06-29T04:33:42.034Z,990.94
2018-06-29T04:34:42.038Z,990.93
2018-06-29T04:35:42.038Z,990.91
2018-06-29T04:36:42.039Z,990.94
2018-06-29T04:37:42.038Z,990.93
2018-06-29T04:38:42.053Z,990.95
2018-06-29T04:39:42.041Z,990.93
2018-06-29T04:40:42.043Z,990.95
2018-06-29T04:41:42.041Z,990.93
2018-06-29T04:42:42.055Z,990.93
2018-06-29T04:43:42.041Z,990.9
2018-06-29T04:44:42.054Z,990.91
2018-06-29T04:45:42.071Z,990.89
2018-06-29T04:46:42.044Z,990.87
2018-06-29T04:47:42.046Z,990.9
2018-06-29T04:48:42.047Z,990.89
2018-06-29T04:49:42.048Z,990.84
2018-06-29T04:50:42.049Z,990.8
2018-06-29T04:51:42.050Z,990.75
2018-06-29T04:52:42.050Z,990.76
2018-06-29T04:53:42.053Z,990.79
2018-06-29T04:54:42.052Z,990.84
2018-06-29T04:55:42.053Z,990.81
2018-06-29T04:56:42.052Z,990.85
2018-06-29T04:57:42.052Z,990.83
2018-06-29T04:58:42.059Z,990.83
2018-06-29T04:59:42.056Z,990.78
2018-06-29T05:00:42.058Z,990.78
2018-06-29T05:01:42.059Z,990.75
2018-06-29T05:02:42.058Z,990.77
2018-06-29T05:03:42.059Z,990.8
2018-06-29T05:04:42.060Z,990.81
2018-06-29T05:05:42.061Z,990.77
2018-06-29T05:06:42.061Z,990.75
2018-06-29T05:07:42.068Z,990.72
2018-06-29T05:08:42.066Z,990.69
2018-06-29T05:09:42.066Z,990.74
2018-06-29T05:10:42.069Z,990.73
2018-06-29T05:11:42.066Z,990.75
2018-06-29T05:12:42.069Z,990.76
2018-06-29T05:13:42.069Z,990.76
2018-06-29T05:14:42.084Z,990.74
2018-06-29T05:15:42.091Z,990.77
2018-06-29T05:16:42.086Z,990.75
2018-06-29T05:17:42.091Z,990.8
2018-06-29T05:18:42.089Z,990.74
2018-06-29T05:19:42.094Z,990.76
2018-06-29T05:20:42.090Z,990.78
2018-06-29T05:21:42.090Z,990.74
2018-06-29T05:22:42.089Z,990.73
2018-06-29T05:23:42.094Z,990.77
2018-06-29T05:24:42.087Z,990.76
2018-06-29T05:25:42.125Z,990.82
2018-06-29T05:26:42.095Z,990.85
2018-06-29T05:27:42.091Z,990.88
2018-06-29T05:28:42.136Z,990.93
2018-06-29T05:29:42.099Z,990.82
2018-06-29T05:30:42.173Z,990.87
2018-06-29T05:31:42.113Z,990.96
2018-06-29T05:32:42.102Z,990.94
2018-06-29T05:33:42.104Z,991
2018-06-29T05:34:42.104Z,990.95
2018-06-29T05:35:42.108Z,990.96
2018-06-29T05:36:42.109Z,990.92
2018-06-29T05:37:42.117Z,990.79
2018-06-29T05:38:42.123Z,990.89
2018-06-29T05:39:42.121Z,990.86
2018-06-29T05:40:42.135Z,990.86
2018-06-29T05:41:42.255Z,990.84
2018-06-29T05:42:42.210Z,990.84
2018-06-29T05:43:42.146Z,990.86
2018-06-29T05:44:42.155Z,990.94
2018-06-29T05:45:42.147Z,990.93
2018-06-29T05:46:42.154Z,990.93
2018-06-29T05:47:42.159Z,991
2018-06-29T05:48:42.156Z,991.02
2018-06-29T05:49:42.162Z,990.98
2018-06-29T05:50:42.164Z,990.97
2018-06-29T05:51:42.185Z,990.98
2018-06-29T05:52:42.170Z,990.96
2018-06-29T05:53:42.173Z,991.03
2018-06-29T05:54:42.175Z,991.01
2018-06-29T05:55:42.184Z,991.01
2018-06-29T05:56:42.199Z,990.99
2018-06-29T05:57:42.195Z,991.01
2018-06-29T05:58:42.192Z,990.95
2018-06-29T05:59:42.195Z,991
2018-06-29T06:00:42.197Z,990.98
2018-06-29T06:01:42.201Z,990.94
2018-06-29T06:02:42.202Z,990.96
2018-06-29T06:03:42.204Z,990.97
2018-06-29T06:04:42.282Z,990.97
2018-06-29T06:05:42.229Z,990.96
2018-06-29T06:06:42.220Z,990.97
2018-06-29T06:07:42.229Z,990.96
2018-06-29T06:08:42.234Z,990.98
2018-06-29T06:09:42.217Z,990.92
2018-06-29T06:10:42.222Z,990.9
2018-06-29T06:11:42.237Z,990.91
2018-06-29T06:12:42.234Z,990.9
2018-06-29T06:13:42.234Z,990.89
2018-06-29T06:23:52.581Z,990.99
2018-06-29T06:24:52.580Z,991.01
2018-06-29T06:25:52.578Z,991.02
2018-06-29T06:26:52.576Z,991.06
2018-06-29T06:27:52.578Z,991.07
2018-06-29T06:28:52.583Z,991.09
2018-06-29T06:29:52.579Z,991.13
2018-06-29T06:30:52.581Z,991.12
2018-06-29T06:31:52.582Z,991.14
2018-06-29T06:32:52.581Z,991.15
2018-06-29T06:33:52.582Z,991.19
2018-06-29T06:34:52.597Z,991.18
2018-06-29T06:35:52.586Z,991.16
2018-06-29T06:36:52.588Z,991.15
2018-06-29T06:37:52.586Z,991.12
2018-06-29T06:38:52.588Z,991.07
2018-06-29T06:39:52.592Z,991.05
2018-06-29T06:40:52.593Z,991.08
2018-06-29T06:41:52.592Z,991.08
2018-06-29T06:42:52.596Z,991.08
2018-06-29T06:43:52.603Z,991.09
2018-06-29T06:44:52.599Z,991.06
2018-06-29T06:45:52.606Z,991.1
2018-06-29T06:46:52.607Z,991.02
2018-06-29T06:47:52.605Z,991.06
2018-06-29T06:48:52.607Z,990.97
2018-06-29T06:49:52.611Z,991.01
2018-06-29T06:50:52.611Z,991.05
2018-06-29T06:51:52.641Z,991
2018-06-29T06:52:52.616Z,990.93
2018-06-29T06:53:52.624Z,990.92
2018-06-29T06:54:52.624Z,990.91
2018-06-29T06:55:52.629Z,990.88
2018-06-29T06:56:52.642Z,990.9
2018-06-29T06:57:52.634Z,990.92
2018-06-29T06:58:52.638Z,990.93
2018-06-29T06:59:52.649Z,990.99
2018-06-29T07:00:52.647Z,991
2018-06-29T07:01:52.655Z,991.03
2018-06-29T07:02:52.661Z,991.1
2018-06-29T07:03:52.658Z,991.05
2018-06-29T07:04:52.667Z,991.05
2018-06-29T07:05:52.671Z,991.11
2018-06-29T07:06:52.673Z,991.11
2018-06-29T07:07:52.693Z,991.08
2018-06-29T07:08:52.683Z,990.96
2018-06-29T07:09:52.689Z,990.99
2018-06-29T07:10:52.693Z,990.94
2018-06-29T07:11:52.695Z,990.99
2018-06-29T07:12:52.702Z,991.07
2018-06-29T07:13:52.710Z,991.05
2018-06-29T07:14:52.708Z,991.15
2018-06-29T07:15:52.714Z,991.12
2018-06-29T07:16:52.719Z,991.08
2018-06-29T07:17:52.724Z,991.12
2018-06-29T07:18:52.733Z,991.07
2018-06-29T07:19:52.733Z,991.09
2018-06-29T07:20:52.737Z,991.09
2018-06-29T07:21:52.747Z,991.09
2018-06-29T07:22:52.751Z,991.09
2018-06-29T07:23:52.756Z,991.12
2018-06-29T07:24:52.761Z,991.08
2018-06-29T07:25:52.766Z,991.01
2018-06-29T07:26:52.775Z,990.88
2018-06-29T07:27:52.779Z,990.85
2018-06-29T07:28:52.784Z,990.84
2018-06-29T07:29:52.792Z,990.89
2018-06-29T07:30:52.800Z,990.88
2018-06-29T07:31:52.802Z,990.88
2018-06-29T07:32:52.810Z,990.93
2018-06-29T07:33:52.815Z,990.99
2018-06-29T07:34:52.832Z,991
2018-06-29T07:35:52.837Z,991.01
2018-06-29T07:36:52.835Z,991
2018-06-29T07:37:52.854Z,990.98
2018-06-29T07:38:52.848Z,990.99
2018-06-29T07:39:52.851Z,990.99
2018-06-29T07:40:52.853Z,990.98
2018-06-29T07:41:52.859Z,990.95
2018-06-29T07:42:52.868Z,990.94
2018-06-29T07:43:52.867Z,990.96
2018-06-29T07:44:52.873Z,990.93
2018-06-29T07:45:52.888Z,990.92
2018-06-29T07:46:52.886Z,990.97
2018-06-29T07:47:52.907Z,990.96
2018-06-29T07:48:52.897Z,990.93
2018-06-29T07:49:52.895Z,990.91
2018-06-29T07:50:52.897Z,990.91
2018-06-29T07:51:52.902Z,990.89
2018-06-29T07:52:52.948Z,990.92
2018-06-29T07:53:52.914Z,990.98
2018-06-29T07:54:52.915Z,991.03
2018-06-29T07:55:52.922Z,991.08
2018-06-29T07:56:52.921Z,991.15
2018-06-29T07:57:52.929Z,991.18
2018-06-29T07:58:52.962Z,991.17
2018-06-29T07:59:52.938Z,991.11
2018-06-29T08:00:52.938Z,991.14
2018-06-29T08:01:52.940Z,991.09
2018-06-29T08:02:52.957Z,991.12
2018-06-29T08:03:52.986Z,991.12
2018-06-29T08:04:52.956Z,991.11
2018-06-29T08:05:52.959Z,991.12
2018-06-29T08:06:52.960Z,991.15
2018-06-29T08:07:52.965Z,991.1
2018-06-29T08:08:52.972Z,991.1
2018-06-29T08:09:52.972Z,991.13
2018-06-29T08:10:52.976Z,991.18
2018-06-29T08:11:52.982Z,991.19
2018-06-29T08:12:52.985Z,991.17
2018-06-29T08:13:52.990Z,991.12
2018-06-29T08:14:52.993Z,991.11
2018-06-29T08:15:52.997Z,991.13
2018-06-29T08:16:53.072Z,991.14
2018-06-29T08:17:53.019Z,991.15
2018-06-29T08:18:53.009Z,991.19
2018-06-29T08:19:53.013Z,991.2
2018-06-29T08:20:53.017Z,991.22
2018-06-29T08:21:53.021Z,991.19
2018-06-29T08:22:53.025Z,991.2
2018-06-29T08:23:53.030Z,991.2
2018-06-29T08:24:53.089Z,991.14
2018-06-29T08:25:53.036Z,991.1
2018-06-29T08:26:53.042Z,991.09
2018-06-29T08:27:53.045Z,991.12
2018-06-29T08:28:53.053Z,991.13
2018-06-29T08:29:53.061Z,991.17
2018-06-29T08:30:53.057Z,991.15
2018-06-29T08:31:53.059Z,991.14
2018-06-29T08:32:53.066Z,991.17
2018-06-29T08:33:53.068Z,991.12
2018-06-29T08:34:53.071Z,991.14
2018-06-29T08:35:53.090Z,991.16
2018-06-29T08:36:53.078Z,991.16
2018-06-29T08:37:53.083Z,991.12
2018-06-29T08:38:53.088Z,991.16
2018-06-29T08:39:53.089Z,991.19
2018-06-29T08:40:53.094Z,991.19
2018-06-29T08:41:53.094Z,991.15
2018-06-29T08:42:53.100Z,991.16
2018-06-29T08:43:53.106Z,991.16
2018-06-29T08:44:53.106Z,991.11
2018-06-29T08:45:53.118Z,991.03
2018-06-29T08:46:53.153Z,991.05
2018-06-29T08:47:53.126Z,991
2018-06-29T08:48:53.128Z,991.03
2018-06-29T08:49:53.128Z,991.05
2018-06-29T08:50:53.133Z,991.04
2018-06-29T08:51:53.134Z,991.02
2018-06-29T08:52:53.142Z,991.02
2018-06-29T08:53:53.146Z,990.98
2018-06-29T08:54:53.211Z,990.93
2018-06-29T08:55:53.164Z,990.94
2018-06-29T08:56:53.153Z,990.95
2018-06-29T08:57:53.155Z,990.92
2018-06-29T08:58:53.201Z,990.96
2018-06-29T08:59:53.165Z,990.99
2018-06-29T09:00:53.169Z,990.96
2018-06-29T09:01:53.169Z,991.03
2018-06-29T09:02:53.174Z,990.99
2018-06-29T09:03:53.176Z,991.01
2018-06-29T09:04:53.184Z,991.01
2018-06-29T09:05:53.186Z,991.02
2018-06-29T09:06:53.187Z,991.07
2018-06-29T09:07:53.191Z,991.1
2018-06-29T09:08:53.195Z,991.13
2018-06-29T09:09:53.200Z,991.15
2018-06-29T09:10:53.228Z,991.08
2018-06-29T09:11:53.205Z,991.1
2018-06-29T09:12:53.213Z,991.04
2018-06-29T09:13:53.215Z,991.08
2018-06-29T09:14:53.227Z,991.05
2018-06-29T09:15:53.228Z,991.09
2018-06-29T09:16:53.226Z,991.14
2018-06-29T09:17:53.233Z,991.13
2018-06-29T09:18:53.234Z,991.19
2018-06-29T09:19:53.240Z,991.2
2018-06-29T09:20:53.242Z,991.22
2018-06-29T09:21:53.245Z,991.21
2018-06-29T09:22:53.251Z,991.17
2018-06-29T09:23:53.254Z,991.18
2018-06-29T09:24:53.304Z,991.14
2018-06-29T09:25:53.260Z,991.15
2018-06-29T09:26:53.267Z,991.13
2018-06-29T09:27:53.271Z,991.07
2018-06-29T09:28:53.277Z,991.04
2018-06-29T09:29:53.292Z,991.03
2018-06-29T09:30:53.283Z,991.01
2018-06-29T09:31:53.289Z,991
2018-06-29T09:32:53.350Z,991.02
2018-06-29T09:33:53.304Z,990.97
2018-06-29T09:34:53.304Z,990.97
2018-06-29T09:35:53.309Z,991
2018-06-29T09:36:53.311Z,991
2018-06-29T09:37:53.315Z,990.94
2018-06-29T09:38:53.321Z,990.99
2018-06-29T09:39:53.326Z,990.95
2018-06-29T09:40:53.328Z,990.97
2018-06-29T09:41:53.333Z,990.92
2018-06-29T09:42:53.339Z,990.92
2018-06-29T09:43:53.344Z,990.92
2018-06-29T09:44:53.351Z,990.91
2018-06-29T09:45:53.352Z,990.95
2018-06-29T09:46:53.361Z,990.96
2018-06-29T09:47:53.440Z,991
2018-06-29T09:48:53.368Z,990.95
2018-06-29T09:49:53.373Z,990.96
2018-06-29T09:50:53.394Z,990.92
2018-06-29T09:51:53.381Z,990.85
2018-06-29T09:52:53.387Z,990.83
2018-06-29T09:53:53.416Z,990.83
2018-06-29T09:54:53.393Z,990.79
2018-06-29T09:55:53.397Z,990.78
2018-06-29T09:56:53.413Z,990.75
2018-06-29T09:57:53.408Z,990.68
2018-06-29T09:58:53.411Z,990.64
2018-06-29T09:59:53.652Z,990.69
2018-06-29T10:00:55.411Z,990.77
2018-06-29T10:01:53.427Z,990.74
2018-06-29T10:02:53.431Z,990.79
2018-06-29T10:03:53.441Z,990.81
2018-06-29T10:04:53.439Z,990.81
2018-06-29T10:05:53.442Z,990.84
2018-06-29T10:06:53.447Z,990.83
2018-06-29T10:07:53.454Z,990.88
2018-06-29T10:08:53.464Z,990.84
2018-06-29T10:09:53.462Z,990.86
2018-06-29T10:10:53.473Z,990.84
2018-06-29T10:11:53.471Z,990.86
2018-06-29T10:12:53.481Z,990.87
2018-06-29T10:13:53.478Z,990.89
2018-06-29T10:14:53.480Z,990.89
2018-06-29T10:15:53.485Z,990.88
2018-06-29T10:16:53.508Z,990.9
2018-06-29T10:17:53.500Z,990.95
2018-06-29T10:18:53.508Z,990.92
2018-06-29T10:19:53.671Z,990.94
2018-06-29T10:20:53.510Z,990.91
2018-06-29T10:21:53.518Z,990.86
2018-06-29T10:53:19.563Z,990.42
2018-06-29T10:54:19.559Z,990.44
2018-06-29T10:55:19.558Z,990.39
2018-06-29T10:56:19.559Z,990.38
2018-06-29T10:57:19.561Z,990.32
2018-06-29T10:58:19.563Z,990.29
2018-06-29T10:59:19.565Z,990.32
2018-06-29T11:00:19.567Z,990.34
2018-06-29T11:01:19.569Z,990.31
2018-06-29T11:02:19.576Z,990.24
2018-06-29T11:03:19.576Z,990.23
2018-06-29T11:04:19.582Z,990.21
2018-06-29T11:05:19.581Z,990.19
2018-06-29T11:06:19.587Z,990.21
2018-06-29T11:07:19.591Z,990.19
2018-06-29T11:08:19.597Z,990.13
2018-06-29T11:09:19.608Z,990.11
2018-06-29T11:10:19.608Z,990.13
2018-06-29T11:11:19.607Z,990.12
2018-06-29T11:12:19.613Z,990.05
2018-06-29T11:13:19.616Z,990.04
2018-06-29T11:14:19.619Z,990.06
2018-06-29T11:15:19.626Z,990.07
2018-06-29T11:16:19.628Z,990.17
2018-06-29T11:17:19.636Z,990.19
2018-06-29T11:18:19.637Z,990.1
2018-06-29T11:19:19.638Z,990.14
2018-06-29T11:20:19.647Z,990.12
2018-06-29T11:21:19.649Z,990.05
2018-06-29T11:22:19.657Z,990.11
2018-06-29T11:23:19.669Z,990.02
2018-06-29T11:24:19.663Z,990.04
2018-06-29T11:25:19.667Z,990.04
2018-06-29T11:26:19.672Z,990.06
2018-06-29T11:27:19.679Z,990.04
2018-06-29T11:28:19.683Z,990.07
2018-06-29T11:29:19.685Z,990.04
2018-06-29T11:30:19.762Z,990.06
2018-06-29T11:31:19.692Z,990.08
2018-06-29T11:32:19.699Z,990.05
2018-06-29T11:33:19.709Z,990.1
2018-06-29T11:34:19.710Z,990.07
2018-06-29T11:35:19.712Z,990.05
2018-06-29T11:36:19.717Z,990.07
2018-06-29T11:37:19.721Z,990.08
2018-06-29T11:38:20.528Z,990.08
2018-06-29T11:39:19.729Z,990.02
2018-06-29T11:40:19.736Z,990
2018-06-29T11:41:19.742Z,989.96
2018-06-29T11:42:19.775Z,990.03
2018-06-29T11:43:19.750Z,990.01
2018-06-29T11:44:19.760Z,990.03
2018-06-29T11:45:19.761Z,989.97
2018-06-29T11:46:19.764Z,989.97
2018-06-29T11:47:19.769Z,989.89
2018-06-29T11:48:19.781Z,989.91
2018-06-29T11:49:19.781Z,989.88
2018-06-29T11:50:19.787Z,989.88
2018-06-29T11:51:19.815Z,989.89
2018-06-29T11:52:19.796Z,989.94
2018-06-29T11:53:19.796Z,989.81
2018-06-29T11:54:19.803Z,989.76
2018-06-29T11:55:19.809Z,989.83
2018-06-29T11:56:19.814Z,989.88
2018-06-29T11:57:19.817Z,989.85
2018-06-29T11:58:19.821Z,989.8
2018-06-29T11:59:19.827Z,989.83
2018-06-29T12:00:19.833Z,989.82
2018-06-29T12:01:19.860Z,989.8
2018-06-29T12:02:19.848Z,989.83
2018-06-29T12:03:19.846Z,989.82
2018-06-29T12:04:19.853Z,989.79
2018-06-29T12:05:19.857Z,989.83
2018-06-29T12:06:19.861Z,989.78
2018-06-29T12:07:19.958Z,989.72
2018-06-29T12:08:19.872Z,989.75
2018-06-29T12:09:19.874Z,989.73
2018-06-29T12:10:19.883Z,989.77
2018-06-29T12:11:19.888Z,989.69
2018-06-29T12:12:19.891Z,989.73
2018-06-29T12:13:19.898Z,989.67
2018-06-29T12:14:19.915Z,989.69
2018-06-29T12:15:19.907Z,989.6
2018-06-29T12:16:19.920Z,989.63
2018-06-29T12:17:19.921Z,989.65
2018-06-29T12:18:19.925Z,989.65
2018-06-29T12:19:19.929Z,989.64
2018-06-29T12:20:19.939Z,989.68
2018-06-29T12:21:19.941Z,989.63
2018-06-29T12:22:19.941Z,989.59
2018-06-29T12:23:20.009Z,989.58
2018-06-29T12:24:19.954Z,989.55
2018-06-29T12:25:19.962Z,989.53
2018-06-29T12:26:19.966Z,989.63
2018-06-29T12:27:19.971Z,989.49
2018-06-29T12:28:19.977Z,989.51
2018-06-29T12:29:19.981Z,989.54
2018-06-29T12:30:19.987Z,989.56
2018-06-29T12:31:19.990Z,989.59
2018-06-29T12:32:20.012Z,989.64
2018-06-29T12:33:20.116Z,989.65
2018-06-29T12:34:20.010Z,989.55
2018-06-29T12:35:20.012Z,989.56
2018-06-29T12:36:20.018Z,989.62
2018-06-29T12:37:20.027Z,989.58
2018-06-29T12:38:20.028Z,989.63
2018-06-29T12:39:20.034Z,989.63
2018-06-29T12:40:20.040Z,989.66
2018-06-29T12:41:20.044Z,989.56
2018-06-29T12:42:20.053Z,989.57
2018-06-29T12:43:20.053Z,989.5
2018-06-29T12:44:20.058Z,989.54
2018-06-29T12:45:20.081Z,989.59
2018-06-29T12:46:20.080Z,989.58
2018-06-29T12:47:20.087Z,989.63
2018-06-29T12:48:20.078Z,989.63
2018-06-29T12:49:20.102Z,989.68
2018-06-29T12:50:20.090Z,989.59
2018-06-29T12:51:20.109Z,989.62
2018-06-29T12:52:20.103Z,989.56
2018-06-29T12:53:20.101Z,989.52
2018-06-29T12:54:20.110Z,989.48
2018-06-29T12:55:20.114Z,989.53
2018-06-29T12:56:20.120Z,989.43
2018-06-29T12:57:20.150Z,989.46
2018-06-29T12:58:20.132Z,989.49
2018-06-29T12:59:20.135Z,989.56
2018-06-29T13:00:20.156Z,989.56
2018-06-29T13:01:20.165Z,989.55
2018-06-29T13:02:20.170Z,989.48
2018-06-29T13:03:20.157Z,989.58
2018-06-29T13:04:20.169Z,989.55
2018-06-29T13:05:20.222Z,989.57
2018-06-29T13:06:20.178Z,989.49
2018-06-29T13:07:20.182Z,989.5
2018-06-29T13:08:20.184Z,989.68
2018-06-29T13:09:20.192Z,989.64
2018-06-29T13:10:20.197Z,989.61
2018-06-29T13:11:20.200Z,989.54